createdAt,value
2022-09-23T00:02:12.730Z,4.53
2022-09-23T00:04:41.934Z,4.40
2022-09-23T00:07:10.335Z,4.33
2022-09-23T00:09:38.324Z,4.07
2022-09-23T00:12:10.655Z,5.93
2022-09-23T00:14:39.806Z,9.57
2022-09-23T00:17:08.324Z,13.87
2022-09-23T00:19:36.368Z,11.00
2022-09-23T00:22:04.878Z,9.33
2022-09-23T00:24:33.366Z,9.13
2022-09-23T00:27:01.843Z,7.43
2022-09-23T00:29:32.315Z,7.33
2022-09-23T00:32:00.317Z,7.80
2022-09-23T00:34:29.721Z,6.40
2022-09-23T00:36:58.398Z,7.67
2022-09-23T00:39:27.538Z,5.57
2022-09-23T00:41:56.209Z,5.73
2022-09-23T00:44:49.843Z,5.83
2022-09-23T00:47:25.723Z,5.30
2022-09-23T00:50:01.762Z,5.90
2022-09-23T00:52:32.093Z,7.03
2022-09-23T00:55:02.600Z,7.17
2022-09-23T00:57:31.702Z,6.63
2022-09-23T01:00:01.697Z,5.63
2022-09-23T01:02:29.923Z,5.13
2022-09-23T01:04:59.093Z,4.33
2022-09-23T01:07:27.132Z,4.80
2022-09-23T01:09:55.646Z,4.40
2022-09-23T01:12:42.413Z,4.07
2022-09-23T01:15:18.401Z,6.53
2022-09-23T01:17:55.966Z,4.50
2022-09-23T01:20:47.812Z,4.40
2022-09-23T01:23:57.655Z,4.63
2022-09-23T01:26:49.628Z,6.00
2022-09-23T01:29:47.998Z,4.37
2022-09-23T01:32:26.270Z,4.23
2022-09-23T01:35:05.984Z,4.97
2022-09-23T01:37:42.386Z,4.17
2022-09-23T01:40:16.193Z,5.00
2022-09-23T01:42:48.934Z,4.90
2022-09-23T01:45:23.483Z,6.10
2022-09-23T01:47:57.564Z,5.00
2022-09-23T01:50:47.584Z,4.40
2022-09-23T01:53:22.747Z,4.60
2022-09-23T01:55:57.693Z,4.60
2022-09-23T01:58:29.660Z,5.07
2022-09-23T02:01:01.560Z,4.30
2022-09-23T02:03:35.503Z,4.80
2022-09-23T02:06:07.155Z,4.93
2022-09-23T02:08:39.345Z,4.20
2022-09-23T02:11:10.765Z,3.93
2022-09-23T02:13:42.957Z,4.20
2022-09-23T02:16:15.781Z,3.63
2022-09-23T02:18:50.333Z,4.90
2022-09-23T02:21:20.412Z,4.17
2022-09-23T02:23:54.293Z,4.40
2022-09-23T02:26:29.122Z,5.20
2022-09-23T02:29:03.092Z,4.00
2022-09-23T02:31:38.720Z,4.27
2022-09-23T02:34:19.309Z,3.87
2022-09-23T02:36:57.204Z,4.70
2022-09-23T02:39:31.540Z,3.80
2022-09-23T02:42:06.063Z,4.03
2022-09-23T02:44:34.849Z,3.93
2022-09-23T02:47:03.826Z,4.40
2022-09-23T02:49:36.549Z,4.80
2022-09-23T02:52:08.070Z,3.87
2022-09-23T02:54:38.288Z,4.03
2022-09-23T02:57:10.121Z,4.17
2022-09-23T02:59:39.452Z,4.40
2022-09-23T03:02:17.495Z,4.10
2022-09-23T03:04:57.053Z,4.10
2022-09-23T03:07:33.587Z,3.93
2022-09-23T03:10:10.693Z,3.90
2022-09-23T03:12:43.908Z,4.17
2022-09-23T03:15:24.388Z,6.33
2022-09-23T03:18:03.098Z,4.30
2022-09-23T03:20:36.014Z,4.27
2022-09-23T03:23:08.955Z,4.00
2022-09-23T03:25:39.847Z,3.70
2022-09-23T03:28:09.235Z,7.80
2022-09-23T03:30:38.578Z,3.87
2022-09-23T03:33:10.691Z,3.80
2022-09-23T03:36:02.868Z,4.20
2022-09-23T03:38:36.537Z,3.60
2022-09-23T03:41:07.254Z,4.00
2022-09-23T03:43:38.864Z,3.63
2022-09-23T03:46:09.761Z,3.63
2022-09-23T03:48:37.823Z,3.67
2022-09-23T03:51:21.186Z,3.70
2022-09-23T03:53:49.354Z,3.90
2022-09-23T03:56:17.552Z,4.67
2022-09-23T03:58:46.522Z,3.20
2022-09-23T04:01:16.327Z,3.57
2022-09-23T04:03:44.901Z,4.00
2022-09-23T04:06:14.991Z,3.70
2022-09-23T04:08:43.045Z,3.77
2022-09-23T04:11:11.835Z,3.90
2022-09-23T04:13:40.531Z,4.20
2022-09-23T04:16:09.061Z,4.10
2022-09-23T04:18:37.156Z,4.20
2022-09-23T04:21:05.838Z,4.73
2022-09-23T04:23:35.689Z,4.37
2022-09-23T04:26:05.414Z,6.17
2022-09-23T04:28:33.490Z,4.30
2022-09-23T04:31:05.022Z,6.27
2022-09-23T04:33:33.940Z,6.37
2022-09-23T04:36:02.672Z,4.70
2022-09-23T04:38:31.594Z,4.43
2022-09-23T04:41:01.429Z,4.43
2022-09-23T04:43:29.439Z,5.23
2022-09-23T04:46:01.941Z,4.67
2022-09-23T04:48:30.150Z,4.53
2022-09-23T04:51:04.098Z,4.67
2022-09-23T04:53:32.755Z,4.10
2022-09-23T04:56:06.800Z,5.13
2022-09-23T04:58:35.300Z,4.80
2022-09-23T05:01:10.605Z,6.83
2022-09-23T05:03:39.900Z,4.77
2022-09-23T05:06:09.239Z,5.57
2022-09-23T05:08:37.786Z,4.37
2022-09-23T05:11:08.101Z,4.53
2022-09-23T05:13:36.415Z,7.27
2022-09-23T05:16:07.106Z,6.07
2022-09-23T05:18:36.013Z,6.00
2022-09-23T05:21:04.778Z,5.43
2022-09-23T05:23:33.321Z,5.93
2022-09-23T05:26:03.775Z,6.20
2022-09-23T05:28:35.396Z,5.80
2022-09-23T05:31:04.933Z,5.70
2022-09-23T05:33:33.332Z,6.20
2022-09-23T05:36:02.021Z,6.17
2022-09-23T05:38:31.572Z,6.03
2022-09-23T05:41:00.895Z,6.10
2022-09-23T05:43:29.943Z,7.47
2022-09-23T05:46:08.144Z,7.37
2022-09-23T05:48:37.801Z,10.00
2022-09-23T05:51:12.786Z,12.17
2022-09-23T05:53:43.134Z,9.37
2022-09-23T05:56:11.791Z,7.60
2022-09-23T05:58:40.475Z,7.40
2022-09-23T06:01:15.084Z,6.37
2022-09-23T06:03:43.636Z,6.27
2022-09-23T06:06:15.854Z,6.03
2022-09-23T06:08:43.868Z,8.77
2022-09-23T06:11:12.843Z,7.53
2022-09-23T06:13:42.117Z,7.10
2022-09-23T06:16:13.867Z,6.47
2022-09-23T06:18:43.478Z,6.53
2022-09-23T06:21:14.171Z,6.63
2022-09-23T06:23:42.395Z,6.83
2022-09-23T06:26:13.397Z,6.47
2022-09-23T06:28:43.150Z,6.03
2022-09-23T06:31:15.363Z,11.53
2022-09-23T06:33:44.973Z,6.43
2022-09-23T06:36:26.867Z,5.17
2022-09-23T06:38:59.542Z,5.13
2022-09-23T06:41:27.558Z,4.80
2022-09-23T06:43:55.972Z,4.43
2022-09-23T06:46:25.752Z,4.47
2022-09-23T06:48:54.297Z,4.80
2022-09-23T06:51:22.355Z,6.97
2022-09-23T06:53:51.463Z,5.03
2022-09-23T06:56:21.175Z,5.37
2022-09-23T06:58:50.926Z,5.00
2022-09-23T07:01:20.326Z,5.57
2022-09-23T07:03:50.239Z,6.73
2022-09-23T07:06:19.127Z,6.20
2022-09-23T07:08:48.781Z,6.60
2022-09-23T07:11:19.427Z,6.23
2022-09-23T07:13:47.872Z,5.90
2022-09-23T07:16:16.440Z,8.30
2022-09-23T07:18:45.105Z,6.23
2022-09-23T07:21:17.496Z,5.80
2022-09-23T07:23:46.938Z,5.97
2022-09-23T07:26:15.912Z,6.07
2022-09-23T07:28:45.504Z,5.97
2022-09-23T07:31:18.726Z,6.17
2022-09-23T07:33:57.784Z,7.77
2022-09-23T07:36:28.459Z,5.93
2022-09-23T07:39:03.161Z,6.07
2022-09-23T07:41:33.350Z,6.70
2022-09-23T07:44:01.466Z,5.50
2022-09-23T07:46:32.378Z,5.33
2022-09-23T07:49:02.002Z,5.33
2022-09-23T07:51:36.253Z,5.73
2022-09-23T07:54:07.830Z,5.37
2022-09-23T07:56:37.498Z,4.90
2022-09-23T07:59:09.303Z,4.97
2022-09-23T08:01:39.872Z,4.67
2022-09-23T08:04:13.875Z,4.70
2022-09-23T08:06:44.610Z,5.90
2022-09-23T08:09:13.550Z,4.43
2022-09-23T08:11:42.772Z,4.83
2022-09-23T08:14:11.309Z,4.77
2022-09-23T08:16:40.302Z,4.50
2022-09-23T08:19:08.617Z,5.50
2022-09-23T08:21:38.108Z,4.67
2022-09-23T08:24:07.796Z,4.63
2022-09-23T08:26:36.953Z,4.30
2022-09-23T08:29:05.244Z,5.87
2022-09-23T08:31:33.819Z,4.27
2022-09-23T08:34:01.811Z,3.80
2022-09-23T08:36:30.344Z,4.80
2022-09-23T08:38:58.382Z,4.10
2022-09-23T08:41:36.115Z,4.03
2022-09-23T08:44:09.658Z,6.47
2022-09-23T08:46:42.591Z,5.72
2022-09-23T08:49:15.678Z,4.30
2022-09-23T08:51:48.471Z,4.00
2022-09-23T08:54:19.078Z,4.05
2022-09-23T08:56:52.363Z,3.67
2022-09-23T08:59:29.565Z,3.40
2022-09-23T09:02:01.170Z,3.28
2022-09-23T09:04:39.770Z,3.75
2022-09-23T09:07:35.773Z,3.78
2022-09-23T09:10:08.140Z,3.40
2022-09-23T09:12:43.438Z,2.90
2022-09-23T09:15:15.798Z,3.60
2022-09-23T09:17:55.339Z,3.13
2022-09-23T09:20:25.937Z,3.90
2022-09-23T09:22:58.074Z,3.35
2022-09-23T09:25:40.898Z,2.97
2022-09-23T09:28:17.335Z,2.90
2022-09-23T09:30:48.634Z,3.08
2022-09-23T09:33:20.588Z,2.80
2022-09-23T09:36:09.628Z,4.18
2022-09-23T09:38:38.430Z,2.97
2022-09-23T09:41:15.931Z,2.58
2022-09-23T09:43:52.343Z,3.05
2022-09-23T09:46:37.905Z,2.60
2022-09-23T09:49:13.023Z,2.00
2022-09-23T09:51:42.577Z,2.35
2022-09-23T09:54:20.494Z,3.03
2022-09-23T09:56:50.452Z,2.50
2022-09-23T09:59:25.576Z,2.70
2022-09-23T10:02:14.877Z,2.05
2022-09-23T10:04:43.481Z,2.03
2022-09-23T10:07:15.982Z,1.80
2022-09-23T10:09:51.212Z,3.38
2022-09-23T10:12:21.098Z,2.13
2022-09-23T10:14:52.406Z,2.00
2022-09-23T10:17:24.904Z,2.13
2022-09-23T10:20:00.265Z,2.20
2022-09-23T10:22:32.998Z,2.33
2022-09-23T10:25:05.810Z,1.92
2022-09-23T10:27:36.264Z,2.55
2022-09-23T10:30:08.338Z,2.70
2022-09-23T10:32:40.435Z,2.17
2022-09-23T10:35:18.079Z,1.75
2022-09-23T10:37:49.903Z,2.00
2022-09-23T10:40:44.857Z,2.08
2022-09-23T10:43:46.833Z,1.92
2022-09-23T10:46:38.464Z,1.85
2022-09-23T10:49:33.084Z,1.80
2022-09-23T10:52:14.158Z,2.00
2022-09-23T10:54:54.638Z,2.25
2022-09-23T10:57:42.990Z,1.70
2022-09-23T11:00:23.395Z,1.50
2022-09-23T11:03:20.751Z,2.10
2022-09-23T11:06:01.242Z,1.63
2022-09-23T11:08:48.143Z,2.10
2022-09-23T11:11:29.764Z,1.70
2022-09-23T11:14:16.303Z,1.98
2022-09-23T11:16:58.185Z,1.50
2022-09-23T11:19:54.276Z,1.48
2022-09-23T11:22:37.990Z,1.60
2022-09-23T11:25:31.695Z,1.27
2022-09-23T11:28:24.014Z,1.80
2022-09-23T11:31:05.607Z,1.40
2022-09-23T11:33:53.974Z,1.42
2022-09-23T11:36:28.610Z,1.23
2022-09-23T11:39:01.224Z,1.70
2022-09-23T11:41:31.895Z,1.10
2022-09-23T11:44:08.532Z,4.22
2022-09-23T11:46:42.197Z,1.33
2022-09-23T11:49:15.895Z,1.40
2022-09-23T11:51:58.578Z,1.73
2022-09-23T11:54:31.561Z,1.50
2022-09-23T11:57:04.923Z,1.40
2022-09-23T11:59:40.896Z,1.17
2022-09-23T12:02:23.058Z,3.15
2022-09-23T12:05:01.679Z,1.60
2022-09-23T12:07:44.999Z,2.03
2022-09-23T12:10:15.363Z,2.85
2022-09-23T12:12:48.919Z,1.58
2022-09-23T12:15:28.416Z,1.50
2022-09-23T12:18:27.770Z,1.70
2022-09-23T12:21:08.343Z,1.65
2022-09-23T12:24:03.648Z,2.60
2022-09-23T12:26:33.656Z,5.28
2022-09-23T12:29:05.869Z,1.33
2022-09-23T12:31:42.027Z,1.27
2022-09-23T12:34:24.654Z,1.33
2022-09-23T12:36:52.922Z,1.50
2022-09-23T12:39:30.785Z,1.30
2022-09-23T12:42:01.048Z,1.40
2022-09-23T12:44:37.260Z,1.20
2022-09-23T12:47:40.104Z,1.23
2022-09-23T12:50:42.375Z,1.90
2022-09-23T12:53:54.509Z,1.23
2022-09-23T12:56:27.523Z,2.50
2022-09-23T12:59:03.641Z,1.25
2022-09-23T13:01:37.942Z,1.38
2022-09-23T13:04:23.963Z,1.35
2022-09-23T13:06:58.761Z,2.53
2022-09-23T13:09:30.634Z,1.13
2022-09-23T13:12:02.324Z,1.50
2022-09-23T13:14:33.458Z,1.10
2022-09-23T13:17:02.257Z,1.35
2022-09-23T13:19:47.149Z,1.27
2022-09-23T13:22:15.653Z,2.45
2022-09-23T13:24:46.441Z,1.00
2022-09-23T13:27:29.511Z,0.95
2022-09-23T13:30:05.575Z,1.33
2022-09-23T13:32:35.878Z,2.92
2022-09-23T13:35:08.297Z,1.15
2022-09-23T13:37:45.472Z,1.63
2022-09-23T13:40:24.215Z,1.05
2022-09-23T13:42:58.964Z,1.05
2022-09-23T13:45:31.338Z,1.17
2022-09-23T13:48:05.186Z,1.40
2022-09-23T13:50:35.172Z,1.05
2022-09-23T13:53:13.248Z,2.08
2022-09-23T13:55:41.710Z,1.25
2022-09-23T13:58:24.428Z,0.98
2022-09-23T14:00:52.896Z,1.40
2022-09-23T14:03:30.234Z,0.88
2022-09-23T14:06:03.288Z,0.90
2022-09-23T14:08:33.063Z,1.23
2022-09-23T14:11:02.301Z,2.05
2022-09-23T14:13:34.819Z,1.20
2022-09-23T14:16:05.164Z,2.35
2022-09-23T14:18:40.003Z,1.33
2022-09-23T14:21:25.208Z,1.15
2022-09-23T14:23:53.217Z,1.23
2022-09-23T14:26:22.078Z,2.70
2022-09-23T14:28:51.906Z,3.40
2022-09-23T14:31:20.568Z,1.50
2022-09-23T14:33:48.689Z,1.38
2022-09-23T14:36:51.472Z,1.40
2022-09-23T14:39:19.721Z,1.50
2022-09-23T14:41:47.830Z,1.30
2022-09-23T14:44:23.492Z,4.47
2022-09-23T14:46:56.945Z,1.83
2022-09-23T14:49:26.062Z,2.35
2022-09-23T14:51:56.120Z,1.40
2022-09-23T14:54:38.169Z,1.83
2022-09-23T14:57:25.697Z,1.60
2022-09-23T14:59:58.000Z,1.45
2022-09-23T15:02:31.352Z,2.20
2022-09-23T15:05:19.094Z,1.50
2022-09-23T15:07:51.101Z,1.30
2022-09-23T15:10:27.792Z,1.38
2022-09-23T15:13:08.148Z,3.88
2022-09-23T15:15:38.303Z,2.97
2022-09-23T15:18:09.039Z,1.55
2022-09-23T15:20:38.157Z,2.15
2022-09-23T15:23:06.177Z,4.43
2022-09-23T15:25:35.878Z,2.55
2022-09-23T15:28:19.771Z,3.05
2022-09-23T15:30:50.826Z,1.77
2022-09-23T15:33:18.863Z,2.72
2022-09-23T15:35:50.765Z,6.55
2022-09-23T15:38:19.240Z,9.32
2022-09-23T15:40:48.088Z,5.90
2022-09-23T15:43:20.908Z,4.00
2022-09-23T15:45:53.559Z,3.25
2022-09-23T15:48:25.399Z,6.90
2022-09-23T15:50:54.661Z,9.73
2022-09-23T15:53:26.156Z,6.18
2022-09-23T15:55:54.410Z,8.05
2022-09-23T15:58:23.666Z,6.05
2022-09-23T16:00:56.826Z,3.00
2022-09-23T16:03:28.986Z,2.63
2022-09-23T16:06:02.409Z,2.03
2022-09-23T16:08:32.949Z,1.52
2022-09-23T16:11:01.879Z,1.63
2022-09-23T16:13:30.337Z,1.27
2022-09-23T16:15:59.800Z,2.78
2022-09-23T16:18:28.314Z,1.70
2022-09-23T16:20:57.368Z,1.40
2022-09-23T16:23:35.908Z,1.48
2022-09-23T16:26:13.926Z,2.47
2022-09-23T16:28:42.303Z,1.40
2022-09-23T16:31:12.304Z,1.60
2022-09-23T16:33:40.764Z,1.38
2022-09-23T16:36:14.373Z,5.90
2022-09-23T16:38:42.491Z,6.05
2022-09-23T16:41:12.133Z,6.60
2022-09-23T16:43:40.979Z,66.45
2022-09-23T16:46:09.693Z,128.73
2022-09-23T16:48:40.903Z,261.70
2022-09-23T16:51:09.792Z,292.88
2022-09-23T16:53:39.261Z,160.10
2022-09-23T16:56:09.662Z,56.92
2022-09-23T16:58:38.095Z,32.08
2022-09-23T17:01:25.012Z,11.77
2022-09-23T17:03:54.881Z,12.20
2022-09-23T17:06:24.490Z,8.48
2022-09-23T17:08:52.481Z,4.95
2022-09-23T17:11:21.445Z,4.50
2022-09-23T17:13:50.752Z,3.53
2022-09-23T17:16:26.820Z,3.17
2022-09-23T17:18:56.943Z,2.95
2022-09-23T17:21:26.657Z,2.50
2022-09-23T17:23:56.945Z,4.30
2022-09-23T17:26:27.514Z,2.72
2022-09-23T17:28:57.615Z,5.55
2022-09-23T17:31:26.843Z,6.60
2022-09-23T17:33:56.702Z,10.25
2022-09-23T17:36:24.867Z,9.75
2022-09-23T17:38:54.385Z,9.05
2022-09-23T17:41:23.060Z,11.02
2022-09-23T17:43:55.414Z,7.40
2022-09-23T17:46:23.957Z,7.82
2022-09-23T17:48:52.941Z,6.15
2022-09-23T17:51:22.501Z,5.05
2022-09-23T17:53:51.706Z,4.40
2022-09-23T17:56:21.464Z,6.03
2022-09-23T17:58:51.440Z,3.90
2022-09-23T18:01:22.254Z,4.30
2022-09-23T18:03:55.383Z,3.45
2022-09-23T18:06:27.139Z,3.60
2022-09-23T18:08:55.973Z,4.43
2022-09-23T18:11:25.689Z,3.47
2022-09-23T18:13:55.303Z,5.10
2022-09-23T18:16:26.399Z,4.05
2022-09-23T18:18:55.441Z,3.35
2022-09-23T18:21:27.606Z,3.40
2022-09-23T18:24:06.489Z,3.90
2022-09-23T18:26:44.358Z,3.88
2022-09-23T18:29:12.519Z,4.10
2022-09-23T18:31:41.643Z,4.72
2022-09-23T18:34:13.063Z,6.32
2022-09-23T18:36:43.919Z,26.08
2022-09-23T18:39:12.184Z,21.23
2022-09-23T18:41:41.272Z,14.27
2022-09-23T18:44:10.136Z,16.00
2022-09-23T18:46:38.778Z,11.30
2022-09-23T18:49:24.564Z,7.95
2022-09-23T18:51:56.181Z,10.00
2022-09-23T18:54:25.330Z,7.30
2022-09-23T18:56:53.970Z,5.95
2022-09-23T18:59:25.321Z,4.20
2022-09-23T19:01:54.930Z,4.20
2022-09-23T19:04:25.230Z,3.17
2022-09-23T19:06:56.539Z,3.97
2022-09-23T19:09:25.196Z,4.43
2022-09-23T19:11:54.259Z,3.80
2022-09-23T19:14:22.671Z,4.60
2022-09-23T19:16:51.636Z,3.58
2022-09-23T19:19:20.266Z,4.20
2022-09-23T19:21:48.335Z,3.70
2022-09-23T19:24:21.385Z,4.45
2022-09-23T19:26:50.383Z,4.82
2022-09-23T19:29:22.225Z,5.53
2022-09-23T19:31:51.067Z,4.38
2022-09-23T19:34:24.174Z,4.50
2022-09-23T19:36:53.273Z,4.00
2022-09-23T19:39:24.064Z,3.10
2022-09-23T19:41:54.487Z,3.60
2022-09-23T19:44:24.859Z,3.60
2022-09-23T19:46:56.678Z,4.57
2022-09-23T19:49:26.502Z,3.80
2022-09-23T19:51:56.540Z,3.83
2022-09-23T19:54:27.540Z,3.63
2022-09-23T19:56:56.195Z,4.28
2022-09-23T19:59:26.719Z,3.92
2022-09-23T20:01:55.061Z,3.33
2022-09-23T20:04:24.006Z,4.60
2022-09-23T20:06:52.031Z,4.13
2022-09-23T20:09:20.258Z,4.22
2022-09-23T20:11:50.145Z,3.58
2022-09-23T20:14:19.467Z,8.98
2022-09-23T20:16:47.593Z,3.47
2022-09-23T20:19:16.122Z,3.90
2022-09-23T20:21:44.853Z,3.35
2022-09-23T20:24:14.170Z,3.65
2022-09-23T20:26:59.525Z,5.78
2022-09-23T20:29:29.368Z,4.43
2022-09-23T20:32:00.623Z,4.88
2022-09-23T20:34:30.120Z,4.15
2022-09-23T20:36:59.270Z,5.03
2022-09-23T20:39:27.607Z,4.28
2022-09-23T20:41:55.713Z,4.30
2022-09-23T20:44:24.443Z,4.57
2022-09-23T20:46:54.320Z,3.90
2022-09-23T20:49:23.163Z,4.32
2022-09-23T20:51:51.691Z,4.50
2022-09-23T20:54:20.474Z,5.22
2022-09-23T20:56:49.364Z,4.65
2022-09-23T20:59:17.962Z,4.05
2022-09-23T21:01:48.047Z,4.90
2022-09-23T21:04:17.867Z,6.50
2022-09-23T21:06:46.303Z,4.78
2022-09-23T21:09:14.841Z,5.18
2022-09-23T21:11:43.312Z,5.00
2022-09-23T21:14:11.518Z,5.20
2022-09-23T21:16:40.657Z,4.72
2022-09-23T21:19:09.479Z,5.68
2022-09-23T21:21:39.209Z,8.40
2022-09-23T21:24:39.759Z,5.47
2022-09-23T21:26:56.170Z,6.22
2022-09-23T21:29:24.679Z,6.10
2022-09-23T21:31:52.837Z,5.10
2022-09-23T21:34:20.926Z,5.22
2022-09-23T21:36:50.734Z,4.70
2022-09-23T21:39:19.463Z,7.22
2022-09-23T21:41:47.944Z,7.00
2022-09-23T21:44:15.955Z,5.40
2022-09-23T21:46:44.828Z,5.45
2022-09-23T21:49:13.658Z,11.68
2022-09-23T21:51:42.302Z,18.20
2022-09-23T21:54:16.048Z,17.02
2022-09-23T21:56:45.974Z,17.27
2022-09-23T21:59:14.179Z,15.50
2022-09-23T22:01:45.285Z,11.65
2022-09-23T22:04:17.520Z,9.30
2022-09-23T22:06:46.468Z,8.40
2022-09-23T22:09:21.165Z,7.15
2022-09-23T22:12:09.908Z,7.03
2022-09-23T22:14:39.387Z,6.13
2022-09-23T22:17:10.406Z,7.28
2022-09-23T22:19:45.591Z,7.53
2022-09-23T22:22:17.636Z,6.68
2022-09-23T22:24:48.474Z,6.20
2022-09-23T22:27:18.347Z,7.10
2022-09-23T22:30:04.305Z,6.43
2022-09-23T22:32:47.303Z,6.68
2022-09-23T22:35:19.105Z,5.90
2022-09-23T22:37:47.899Z,6.43
2022-09-23T22:40:17.581Z,6.20
2022-09-23T22:42:46.625Z,7.75
2022-09-23T22:45:15.092Z,8.15
2022-09-23T22:47:45.541Z,6.25
2022-09-23T22:50:15.729Z,5.40
2022-09-23T22:52:44.186Z,5.95
2022-09-23T22:55:13.734Z,6.22
2022-09-23T22:57:43.122Z,6.78
2022-09-23T23:00:13.559Z,5.50
2022-09-23T23:02:42.459Z,5.50
2022-09-23T23:05:10.909Z,6.20
2022-09-23T23:07:38.950Z,5.40
2022-09-23T23:10:17.372Z,5.25
2022-09-23T23:12:47.481Z,9.25
2022-09-23T23:15:16.298Z,9.07
2022-09-23T23:17:44.377Z,9.07
2022-09-23T23:20:13.221Z,9.77
2022-09-23T23:22:41.278Z,8.65
2022-09-23T23:25:10.926Z,10.45
2022-09-23T23:27:39.011Z,11.32
2022-09-23T23:30:10.086Z,8.52
2022-09-23T23:32:38.272Z,7.47
2022-09-23T23:35:07.718Z,6.97
2022-09-23T23:37:35.793Z,12.77
2022-09-23T23:40:04.506Z,6.63
2022-09-23T23:42:32.933Z,8.90
2022-09-23T23:45:01.000Z,7.80
2022-09-23T23:47:30.918Z,6.88
2022-09-23T23:49:59.094Z,6.70
2022-09-23T23:52:27.519Z,6.60
2022-09-23T23:54:55.508Z,6.40
2022-09-23T23:57:23.973Z,7.63
2022-09-23T23:59:51.978Z,6.88
